sensor_id;sensor_type;location;lat;lon;timestamp;temperature;humidity
18041;DHT22;9145;48.588;9.250;2022-10-31T00:00:34;13.60;99.90
18041;DHT22;9145;48.588;9.250;2022-10-31T00:03:00;13.30;99.90
18041;DHT22;9145;48.588;9.250;2022-10-31T00:05:27;13.20;99.90
18041;DHT22;9145;48.588;9.250;2022-10-31T00:07:54;13.10;99.90
18041;DHT22;9145;48.588;9.250;2022-10-31T00:10:21;12.90;99.90
18041;DHT22;9145;48.588;9.250;2022-10-31T00:12:48;12.70;99.90
18041;DHT22;9145;48.588;9.250;2022-10-31T00:15:14;12.60;99.90
18041;DHT22;9145;48.588;9.250;2022-10-31T00:17:43;12.60;99.90
18041;DHT22;9145;48.588;9.250;2022-10-31T00:20:10;12.70;99.90
18041;DHT22;9145;48.588;9.250;2022-10-31T00:22:37;12.80;99.90
18041;DHT22;9145;48.588;9.250;2022-10-31T00:25:04;12.80;99.90
18041;DHT22;9145;48.588;9.250;2022-10-31T00:27:31;12.80;99.90
18041;DHT22;9145;48.588;9.250;2022-10-31T00:29:57;12.80;99.90
18041;DHT22;9145;48.588;9.250;2022-10-31T00:32:24;12.80;99.90
18041;DHT22;9145;48.588;9.250;2022-10-31T00:34:52;12.90;99.90
18041;DHT22;9145;48.588;9.250;2022-10-31T00:37:19;13.00;99.90
18041;DHT22;9145;48.588;9.250;2022-10-31T00:39:46;13.10;99.90
18041;DHT22;9145;48.588;9.250;2022-10-31T00:42:14;13.10;99.90
18041;DHT22;9145;48.588;9.250;2022-10-31T00:44:41;13.10;99.90
18041;DHT22;9145;48.588;9.250;2022-10-31T00:47:08;13.20;99.90
18041;DHT22;9145;48.588;9.250;2022-10-31T00:49:34;13.30;99.90
18041;DHT22;9145;48.588;9.250;2022-10-31T00:52:02;13.30;99.90
18041;DHT22;9145;48.588;9.250;2022-10-31T00:54:29;13.40;99.90
18041;DHT22;9145;48.588;9.250;2022-10-31T00:56:57;13.40;99.90
18041;DHT22;9145;48.588;9.250;2022-10-31T00:59:24;13.30;99.90
18041;DHT22;9145;48.588;9.250;2022-10-31T01:01:50;13.10;99.90
18041;DHT22;9145;48.588;9.250;2022-10-31T01:04:17;12.90;99.90
18041;DHT22;9145;48.588;9.250;2022-10-31T01:06:44;12.70;99.90
18041;DHT22;9145;48.588;9.250;2022-10-31T01:09:12;12.50;99.90
18041;DHT22;9145;48.588;9.250;2022-10-31T01:11:39;12.50;99.90
18041;DHT22;9145;48.588;9.250;2022-10-31T01:14:06;12.40;99.90
18041;DHT22;9145;48.588;9.250;2022-10-31T01:16:33;12.40;99.90
18041;DHT22;9145;48.588;9.250;2022-10-31T01:18:59;12.30;99.90
18041;DHT22;9145;48.588;9.250;2022-10-31T01:21:28;12.30;99.90
18041;DHT22;9145;48.588;9.250;2022-10-31T01:23:56;12.10;99.90
18041;DHT22;9145;48.588;9.250;2022-10-31T01:26:26;12.00;99.90
18041;DHT22;9145;48.588;9.250;2022-10-31T01:28:55;12.00;99.90
18041;DHT22;9145;48.588;9.250;2022-10-31T01:31:24;12.00;99.90
18041;DHT22;9145;48.588;9.250;2022-10-31T01:33:51;12.00;99.90
18041;DHT22;9145;48.588;9.250;2022-10-31T01:36:20;12.10;99.90
18041;DHT22;9145;48.588;9.250;2022-10-31T01:38:48;12.20;99.90
18041;DHT22;9145;48.588;9.250;2022-10-31T01:41:18;12.20;99.90
18041;DHT22;9145;48.588;9.250;2022-10-31T01:43:50;12.00;99.90
18041;DHT22;9145;48.588;9.250;2022-10-31T01:46:20;12.10;99.90
18041;DHT22;9145;48.588;9.250;2022-10-31T01:48:48;12.00;99.90
18041;DHT22;9145;48.588;9.250;2022-10-31T01:51:18;12.00;99.90
18041;DHT22;9145;48.588;9.250;2022-10-31T01:53:47;11.90;99.90
18041;DHT22;9145;48.588;9.250;2022-10-31T01:56:16;11.80;99.90
18041;DHT22;9145;48.588;9.250;2022-10-31T01:58:47;11.80;99.90
18041;DHT22;9145;48.588;9.250;2022-10-31T02:01:15;11.90;99.90
18041;DHT22;9145;48.588;9.250;2022-10-31T02:03:43;12.00;99.90
18041;DHT22;9145;48.588;9.250;2022-10-31T02:06:16;12.00;99.90
18041;DHT22;9145;48.588;9.250;2022-10-31T02:08:46;11.80;99.90
18041;DHT22;9145;48.588;9.250;2022-10-31T02:11:13;11.70;99.90
18041;DHT22;9145;48.588;9.250;2022-10-31T02:13:40;11.60;99.90
18041;DHT22;9145;48.588;9.250;2022-10-31T02:16:10;11.60;99.90
18041;DHT22;9145;48.588;9.250;2022-10-31T02:18:37;11.70;99.90
18041;DHT22;9145;48.588;9.250;2022-10-31T02:21:10;11.60;99.90
18041;DHT22;9145;48.588;9.250;2022-10-31T02:24:05;11.60;99.90
18041;DHT22;9145;48.588;9.250;2022-10-31T02:26:51;11.70;99.90
18041;DHT22;9145;48.588;9.250;2022-10-31T02:32:25;11.70;99.90
18041;DHT22;9145;48.588;9.250;2022-10-31T02:34:58;11.60;99.90
18041;DHT22;9145;48.588;9.250;2022-10-31T02:37:29;11.60;99.90
18041;DHT22;9145;48.588;9.250;2022-10-31T02:40:05;11.70;99.90
18041;DHT22;9145;48.588;9.250;2022-10-31T02:42:41;11.70;99.90
18041;DHT22;9145;48.588;9.250;2022-10-31T02:45:13;11.70;99.90
18041;DHT22;9145;48.588;9.250;2022-10-31T02:47:43;11.70;99.90
18041;DHT22;9145;48.588;9.250;2022-10-31T02:50:13;11.70;99.90
18041;DHT22;9145;48.588;9.250;2022-10-31T02:52:42;11.60;99.90
18041;DHT22;9145;48.588;9.250;2022-10-31T02:55:11;11.50;99.90
18041;DHT22;9145;48.588;9.250;2022-10-31T02:57:40;11.50;99.90
18041;DHT22;9145;48.588;9.250;2022-10-31T03:00:09;11.60;99.90
18041;DHT22;9145;48.588;9.250;2022-10-31T03:02:57;11.60;99.90
18041;DHT22;9145;48.588;9.250;2022-10-31T03:05:41;11.60;99.90
18041;DHT22;9145;48.588;9.250;2022-10-31T03:08:21;11.60;99.90
18041;DHT22;9145;48.588;9.250;2022-10-31T03:10:53;11.60;99.90
18041;DHT22;9145;48.588;9.250;2022-10-31T03:13:28;11.70;99.90
18041;DHT22;9145;48.588;9.250;2022-10-31T03:16:05;11.60;99.90
18041;DHT22;9145;48.588;9.250;2022-10-31T03:18:37;11.60;99.90
18041;DHT22;9145;48.588;9.250;2022-10-31T03:21:09;11.50;99.90
18041;DHT22;9145;48.588;9.250;2022-10-31T03:23:40;11.40;99.90
18041;DHT22;9145;48.588;9.250;2022-10-31T03:26:09;11.20;99.90
18041;DHT22;9145;48.588;9.250;2022-10-31T03:28:41;11.10;99.90
18041;DHT22;9145;48.588;9.250;2022-10-31T03:31:09;11.00;99.90
18041;DHT22;9145;48.588;9.250;2022-10-31T03:33:42;10.90;99.90
18041;DHT22;9145;48.588;9.250;2022-10-31T03:36:11;11.00;99.90
18041;DHT22;9145;48.588;9.250;2022-10-31T03:38:39;11.10;99.90
18041;DHT22;9145;48.588;9.250;2022-10-31T03:41:11;11.00;99.90
18041;DHT22;9145;48.588;9.250;2022-10-31T03:43:43;11.10;99.90
18041;DHT22;9145;48.588;9.250;2022-10-31T03:46:13;11.00;99.90
18041;DHT22;9145;48.588;9.250;2022-10-31T03:48:41;11.00;99.90
18041;DHT22;9145;48.588;9.250;2022-10-31T03:51:11;10.90;99.90
18041;DHT22;9145;48.588;9.250;2022-10-31T03:53:44;11.00;99.90
18041;DHT22;9145;48.588;9.250;2022-10-31T03:56:16;10.90;99.90
18041;DHT22;9145;48.588;9.250;2022-10-31T03:58:48;10.90;99.90
18041;DHT22;9145;48.588;9.250;2022-10-31T04:01:21;10.90;99.90
18041;DHT22;9145;48.588;9.250;2022-10-31T04:03:50;10.90;99.90
18041;DHT22;9145;48.588;9.250;2022-10-31T04:06:18;10.90;99.90
18041;DHT22;9145;48.588;9.250;2022-10-31T04:08:49;10.80;99.90
18041;DHT22;9145;48.588;9.250;2022-10-31T04:11:21;10.80;99.90
18041;DHT22;9145;48.588;9.250;2022-10-31T04:13:50;10.80;99.90
18041;DHT22;9145;48.588;9.250;2022-10-31T04:16:18;10.80;99.90
18041;DHT22;9145;48.588;9.250;2022-10-31T04:18:45;10.70;99.90
18041;DHT22;9145;48.588;9.250;2022-10-31T04:21:13;10.70;99.90
18041;DHT22;9145;48.588;9.250;2022-10-31T04:23:40;10.70;99.90
18041;DHT22;9145;48.588;9.250;2022-10-31T04:26:09;10.80;99.90
18041;DHT22;9145;48.588;9.250;2022-10-31T04:28:37;10.80;99.90
18041;DHT22;9145;48.588;9.250;2022-10-31T04:31:04;10.70;99.90
18041;DHT22;9145;48.588;9.250;2022-10-31T04:33:31;10.70;99.90
18041;DHT22;9145;48.588;9.250;2022-10-31T04:35:57;10.70;99.90
18041;DHT22;9145;48.588;9.250;2022-10-31T04:38:26;10.80;99.90
18041;DHT22;9145;48.588;9.250;2022-10-31T04:40:52;10.80;99.90
18041;DHT22;9145;48.588;9.250;2022-10-31T04:43:19;10.80;99.90
18041;DHT22;9145;48.588;9.250;2022-10-31T04:45:46;10.90;99.90
18041;DHT22;9145;48.588;9.250;2022-10-31T04:48:13;10.90;99.90
18041;DHT22;9145;48.588;9.250;2022-10-31T04:50:40;11.00;99.90
18041;DHT22;9145;48.588;9.250;2022-10-31T04:53:07;11.10;99.90
18041;DHT22;9145;48.588;9.250;2022-10-31T04:55:36;11.00;99.90
18041;DHT22;9145;48.588;9.250;2022-10-31T04:58:03;10.80;99.90
18041;DHT22;9145;48.588;9.250;2022-10-31T05:00:30;10.60;99.90
18041;DHT22;9145;48.588;9.250;2022-10-31T05:02:57;10.60;99.90
18041;DHT22;9145;48.588;9.250;2022-10-31T05:05:27;10.60;99.90
18041;DHT22;9145;48.588;9.250;2022-10-31T05:07:54;10.70;99.90
18041;DHT22;9145;48.588;9.250;2022-10-31T05:10:23;10.60;99.90
18041;DHT22;9145;48.588;9.250;2022-10-31T05:12:52;10.50;99.90
18041;DHT22;9145;48.588;9.250;2022-10-31T05:15:21;10.30;99.90
18041;DHT22;9145;48.588;9.250;2022-10-31T05:17:48;10.30;99.90
18041;DHT22;9145;48.588;9.250;2022-10-31T05:20:16;10.20;99.90
18041;DHT22;9145;48.588;9.250;2022-10-31T05:22:43;10.20;99.90
18041;DHT22;9145;48.588;9.250;2022-10-31T05:25:11;10.20;99.90
18041;DHT22;9145;48.588;9.250;2022-10-31T05:27:39;10.30;99.90
18041;DHT22;9145;48.588;9.250;2022-10-31T05:30:09;10.40;99.90
18041;DHT22;9145;48.588;9.250;2022-10-31T05:32:37;10.30;99.90
18041;DHT22;9145;48.588;9.250;2022-10-31T05:35:06;10.30;99.90
18041;DHT22;9145;48.588;9.250;2022-10-31T05:37:33;10.20;99.90
18041;DHT22;9145;48.588;9.250;2022-10-31T05:40:00;10.20;99.90
18041;DHT22;9145;48.588;9.250;2022-10-31T05:42:27;10.30;99.90
18041;DHT22;9145;48.588;9.250;2022-10-31T05:44:54;10.20;99.90
18041;DHT22;9145;48.588;9.250;2022-10-31T05:47:23;10.20;99.90
18041;DHT22;9145;48.588;9.250;2022-10-31T05:49:49;10.20;99.90
18041;DHT22;9145;48.588;9.250;2022-10-31T05:52:17;10.30;99.90
18041;DHT22;9145;48.588;9.250;2022-10-31T05:54:44;10.40;99.90
18041;DHT22;9145;48.588;9.250;2022-10-31T05:57:10;10.40;99.90
18041;DHT22;9145;48.588;9.250;2022-10-31T05:59:37;10.40;99.90
18041;DHT22;9145;48.588;9.250;2022-10-31T06:02:04;10.30;99.90
18041;DHT22;9145;48.588;9.250;2022-10-31T06:04:32;10.30;99.90
18041;DHT22;9145;48.588;9.250;2022-10-31T06:06:59;10.30;99.90
18041;DHT22;9145;48.588;9.250;2022-10-31T06:09:26;10.20;99.90
18041;DHT22;9145;48.588;9.250;2022-10-31T06:11:52;10.20;99.90
18041;DHT22;9145;48.588;9.250;2022-10-31T06:14:19;10.20;99.90
18041;DHT22;9145;48.588;9.250;2022-10-31T06:16:46;10.30;99.90
18041;DHT22;9145;48.588;9.250;2022-10-31T06:19:13;10.30;99.90
18041;DHT22;9145;48.588;9.250;2022-10-31T06:21:41;10.30;99.90
18041;DHT22;9145;48.588;9.250;2022-10-31T06:24:08;10.30;99.90
18041;DHT22;9145;48.588;9.250;2022-10-31T06:26:35;10.30;99.90
18041;DHT22;9145;48.588;9.250;2022-10-31T06:29:02;10.20;99.90
18041;DHT22;9145;48.588;9.250;2022-10-31T06:31:28;10.10;99.90
18041;DHT22;9145;48.588;9.250;2022-10-31T06:33:55;10.00;99.90
18041;DHT22;9145;48.588;9.250;2022-10-31T06:36:22;10.00;99.90
18041;DHT22;9145;48.588;9.250;2022-10-31T06:38:50;10.00;99.90
18041;DHT22;9145;48.588;9.250;2022-10-31T06:41:17;9.90;99.90
18041;DHT22;9145;48.588;9.250;2022-10-31T06:43:46;10.00;99.90
18041;DHT22;9145;48.588;9.250;2022-10-31T06:46:13;10.00;99.90
18041;DHT22;9145;48.588;9.250;2022-10-31T06:48:40;10.10;99.90
18041;DHT22;9145;48.588;9.250;2022-10-31T06:51:07;10.20;99.90
18041;DHT22;9145;48.588;9.250;2022-10-31T06:53:34;10.40;99.90
18041;DHT22;9145;48.588;9.250;2022-10-31T06:56:02;10.40;99.90
18041;DHT22;9145;48.588;9.250;2022-10-31T06:58:29;10.50;99.90
18041;DHT22;9145;48.588;9.250;2022-10-31T07:00:59;10.60;99.90
18041;DHT22;9145;48.588;9.250;2022-10-31T07:03:26;10.70;99.90
18041;DHT22;9145;48.588;9.250;2022-10-31T07:05:54;10.80;99.90
18041;DHT22;9145;48.588;9.250;2022-10-31T07:08:21;10.90;99.90
18041;DHT22;9145;48.588;9.250;2022-10-31T07:10:51;11.00;99.90
18041;DHT22;9145;48.588;9.250;2022-10-31T07:13:21;11.10;99.90
18041;DHT22;9145;48.588;9.250;2022-10-31T07:15:51;11.10;99.90
18041;DHT22;9145;48.588;9.250;2022-10-31T07:18:18;11.00;99.90
18041;DHT22;9145;48.588;9.250;2022-10-31T07:20:45;11.00;99.90
18041;DHT22;9145;48.588;9.250;2022-10-31T07:23:12;10.90;99.90
18041;DHT22;9145;48.588;9.250;2022-10-31T07:25:40;10.90;99.90
18041;DHT22;9145;48.588;9.250;2022-10-31T07:28:07;11.00;99.90
18041;DHT22;9145;48.588;9.250;2022-10-31T07:30:36;11.00;99.90
18041;DHT22;9145;48.588;9.250;2022-10-31T07:33:03;11.00;99.90
18041;DHT22;9145;48.588;9.250;2022-10-31T07:35:31;11.00;99.90
18041;DHT22;9145;48.588;9.250;2022-10-31T07:38:06;11.10;99.90
18041;DHT22;9145;48.588;9.250;2022-10-31T07:40:33;11.10;99.90
18041;DHT22;9145;48.588;9.250;2022-10-31T07:42:59;11.20;99.90
18041;DHT22;9145;48.588;9.250;2022-10-31T07:45:26;11.20;99.90
18041;DHT22;9145;48.588;9.250;2022-10-31T07:47:55;11.30;99.90
18041;DHT22;9145;48.588;9.250;2022-10-31T07:50:23;11.20;99.90
18041;DHT22;9145;48.588;9.250;2022-10-31T07:52:58;11.20;99.90
18041;DHT22;9145;48.588;9.250;2022-10-31T07:55:25;11.10;99.90
18041;DHT22;9145;48.588;9.250;2022-10-31T07:57:56;11.10;99.90
18041;DHT22;9145;48.588;9.250;2022-10-31T08:00:23;11.10;99.90
18041;DHT22;9145;48.588;9.250;2022-10-31T08:02:57;11.20;99.90
18041;DHT22;9145;48.588;9.250;2022-10-31T08:05:24;11.30;99.90
18041;DHT22;9145;48.588;9.250;2022-10-31T08:07:51;11.20;99.90
18041;DHT22;9145;48.588;9.250;2022-10-31T08:10:18;11.30;99.90
18041;DHT22;9145;48.588;9.250;2022-10-31T08:12:45;11.30;99.90
18041;DHT22;9145;48.588;9.250;2022-10-31T08:15:12;11.30;99.90
18041;DHT22;9145;48.588;9.250;2022-10-31T08:17:39;11.40;99.90
18041;DHT22;9145;48.588;9.250;2022-10-31T08:20:08;11.50;99.90
18041;DHT22;9145;48.588;9.250;2022-10-31T08:22:35;11.50;99.90
18041;DHT22;9145;48.588;9.250;2022-10-31T08:25:02;11.60;99.90
18041;DHT22;9145;48.588;9.250;2022-10-31T08:27:29;11.70;99.90
18041;DHT22;9145;48.588;9.250;2022-10-31T08:29:56;11.80;99.90
18041;DHT22;9145;48.588;9.250;2022-10-31T08:32:23;11.90;99.90
18041;DHT22;9145;48.588;9.250;2022-10-31T08:34:50;12.10;99.90
18041;DHT22;9145;48.588;9.250;2022-10-31T08:37:18;12.00;99.90
18041;DHT22;9145;48.588;9.250;2022-10-31T08:39:45;12.10;99.90
18041;DHT22;9145;48.588;9.250;2022-10-31T08:42:12;12.20;99.90
18041;DHT22;9145;48.588;9.250;2022-10-31T08:44:39;12.20;99.90
18041;DHT22;9145;48.588;9.250;2022-10-31T08:47:06;12.30;99.90
18041;DHT22;9145;48.588;9.250;2022-10-31T08:49:33;12.40;99.90
18041;DHT22;9145;48.588;9.250;2022-10-31T08:52:00;12.50;99.90
18041;DHT22;9145;48.588;9.250;2022-10-31T08:54:28;12.50;99.90
18041;DHT22;9145;48.588;9.250;2022-10-31T08:56:55;12.60;99.90
18041;DHT22;9145;48.588;9.250;2022-10-31T08:59:22;12.70;99.90
18041;DHT22;9145;48.588;9.250;2022-10-31T09:01:48;12.80;99.90
18041;DHT22;9145;48.588;9.250;2022-10-31T09:04:15;12.80;99.90
18041;DHT22;9145;48.588;9.250;2022-10-31T09:06:42;12.90;99.90
18041;DHT22;9145;48.588;9.250;2022-10-31T09:09:09;12.90;99.90
18041;DHT22;9145;48.588;9.250;2022-10-31T09:11:37;12.80;99.90
18041;DHT22;9145;48.588;9.250;2022-10-31T09:14:04;12.90;99.90
18041;DHT22;9145;48.588;9.250;2022-10-31T09:16:31;13.00;99.90
18041;DHT22;9145;48.588;9.250;2022-10-31T09:18:57;13.10;99.90
18041;DHT22;9145;48.588;9.250;2022-10-31T09:21:24;13.20;99.90
18041;DHT22;9145;48.588;9.250;2022-10-31T09:23:51;13.20;99.90
18041;DHT22;9145;48.588;9.250;2022-10-31T09:26:19;13.30;99.90
18041;DHT22;9145;48.588;9.250;2022-10-31T09:28:48;13.50;99.90
18041;DHT22;9145;48.588;9.250;2022-10-31T09:31:14;13.60;99.90
18041;DHT22;9145;48.588;9.250;2022-10-31T09:33:41;13.50;99.90
18041;DHT22;9145;48.588;9.250;2022-10-31T09:36:08;13.60;99.90
18041;DHT22;9145;48.588;9.250;2022-10-31T09:38:35;13.70;99.90
18041;DHT22;9145;48.588;9.250;2022-10-31T09:41:08;13.80;99.90
18041;DHT22;9145;48.588;9.250;2022-10-31T09:43:52;13.90;99.90
18041;DHT22;9145;48.588;9.250;2022-10-31T09:46:30;13.90;99.90
18041;DHT22;9145;48.588;9.250;2022-10-31T09:49:18;14.00;99.90
18041;DHT22;9145;48.588;9.250;2022-10-31T09:51:51;14.10;99.90
18041;DHT22;9145;48.588;9.250;2022-10-31T09:54:21;14.20;99.90
18041;DHT22;9145;48.588;9.250;2022-10-31T09:56:51;14.30;99.90
18041;DHT22;9145;48.588;9.250;2022-10-31T09:59:24;14.30;99.90
18041;DHT22;9145;48.588;9.250;2022-10-31T10:01:56;14.40;99.90
18041;DHT22;9145;48.588;9.250;2022-10-31T10:04:33;14.60;99.90
18041;DHT22;9145;48.588;9.250;2022-10-31T10:09:45;14.80;99.90
18041;DHT22;9145;48.588;9.250;2022-10-31T10:12:18;14.80;99.90
18041;DHT22;9145;48.588;9.250;2022-10-31T10:15:02;14.90;99.90
18041;DHT22;9145;48.588;9.250;2022-10-31T10:17:38;15.00;99.90
18041;DHT22;9145;48.588;9.250;2022-10-31T10:20:18;15.10;99.90
18041;DHT22;9145;48.588;9.250;2022-10-31T10:22:54;15.00;99.90
18041;DHT22;9145;48.588;9.250;2022-10-31T10:25:24;15.10;99.90
18041;DHT22;9145;48.588;9.250;2022-10-31T10:28:03;15.20;99.90
18041;DHT22;9145;48.588;9.250;2022-10-31T10:30:40;15.20;99.90
18041;DHT22;9145;48.588;9.250;2022-10-31T10:33:11;15.30;99.90
18041;DHT22;9145;48.588;9.250;2022-10-31T10:35:42;15.30;99.90
18041;DHT22;9145;48.588;9.250;2022-10-31T10:38:17;15.30;99.90
18041;DHT22;9145;48.588;9.250;2022-10-31T10:40:46;15.50;99.90
18041;DHT22;9145;48.588;9.250;2022-10-31T10:43:22;15.50;99.90
18041;DHT22;9145;48.588;9.250;2022-10-31T10:46:05;15.60;99.90
18041;DHT22;9145;48.588;9.250;2022-10-31T10:48:58;15.60;99.90
18041;DHT22;9145;48.588;9.250;2022-10-31T10:51:35;15.60;99.90
18041;DHT22;9145;48.588;9.250;2022-10-31T10:54:26;15.70;99.90
18041;DHT22;9145;48.588;9.250;2022-10-31T10:57:03;15.70;99.90
18041;DHT22;9145;48.588;9.250;2022-10-31T10:59:32;15.70;99.90
18041;DHT22;9145;48.588;9.250;2022-10-31T11:02:08;15.80;99.90
18041;DHT22;9145;48.588;9.250;2022-10-31T11:04:42;16.00;99.90
18041;DHT22;9145;48.588;9.250;2022-10-31T11:07:11;16.10;99.90
18041;DHT22;9145;48.588;9.250;2022-10-31T11:09:38;16.20;99.90
18041;DHT22;9145;48.588;9.250;2022-10-31T11:12:08;16.40;99.90
18041;DHT22;9145;48.588;9.250;2022-10-31T11:14:43;16.70;99.90
18041;DHT22;9145;48.588;9.250;2022-10-31T11:17:20;17.00;99.90
18041;DHT22;9145;48.588;9.250;2022-10-31T11:20:00;17.10;99.90
18041;DHT22;9145;48.588;9.250;2022-10-31T11:22:26;17.20;99.90
18041;DHT22;9145;48.588;9.250;2022-10-31T11:24:53;17.20;99.90
18041;DHT22;9145;48.588;9.250;2022-10-31T11:27:22;17.40;99.90
18041;DHT22;9145;48.588;9.250;2022-10-31T11:29:49;17.40;99.90
18041;DHT22;9145;48.588;9.250;2022-10-31T11:32:22;17.60;99.90
18041;DHT22;9145;48.588;9.250;2022-10-31T11:34:52;17.60;99.90
18041;DHT22;9145;48.588;9.250;2022-10-31T11:37:22;17.70;99.90
18041;DHT22;9145;48.588;9.250;2022-10-31T11:39:51;17.80;99.90
18041;DHT22;9145;48.588;9.250;2022-10-31T11:42:21;17.90;99.90
18041;DHT22;9145;48.588;9.250;2022-10-31T11:44:50;17.90;99.90
18041;DHT22;9145;48.588;9.250;2022-10-31T11:47:24;17.90;99.90
18041;DHT22;9145;48.588;9.250;2022-10-31T11:49:52;18.00;99.90
18041;DHT22;9145;48.588;9.250;2022-10-31T11:52:22;18.00;99.90
18041;DHT22;9145;48.588;9.250;2022-10-31T11:54:54;18.10;99.90
18041;DHT22;9145;48.588;9.250;2022-10-31T11:57:26;18.20;99.90
18041;DHT22;9145;48.588;9.250;2022-10-31T11:59:54;18.20;99.90
18041;DHT22;9145;48.588;9.250;2022-10-31T12:02:23;18.20;99.90
18041;DHT22;9145;48.588;9.250;2022-10-31T12:05:04;18.30;99.90
18041;DHT22;9145;48.588;9.250;2022-10-31T12:07:33;18.40;99.90
18041;DHT22;9145;48.588;9.250;2022-10-31T12:09:59;18.30;99.90
18041;DHT22;9145;48.588;9.250;2022-10-31T12:12:36;18.30;99.90
18041;DHT22;9145;48.588;9.250;2022-10-31T12:15:20;18.30;99.90
18041;DHT22;9145;48.588;9.250;2022-10-31T12:17:58;18.40;99.90
18041;DHT22;9145;48.588;9.250;2022-10-31T12:20:38;18.30;99.90
18041;DHT22;9145;48.588;9.250;2022-10-31T12:23:14;18.30;99.90
18041;DHT22;9145;48.588;9.250;2022-10-31T12:25:50;18.30;99.90
18041;DHT22;9145;48.588;9.250;2022-10-31T12:31:37;18.20;99.90
18041;DHT22;9145;48.588;9.250;2022-10-31T12:34:25;18.20;99.90
18041;DHT22;9145;48.588;9.250;2022-10-31T12:36:59;18.30;99.90
18041;DHT22;9145;48.588;9.250;2022-10-31T12:39:35;18.30;99.90
18041;DHT22;9145;48.588;9.250;2022-10-31T12:42:12;18.30;99.90
18041;DHT22;9145;48.588;9.250;2022-10-31T12:44:52;18.30;99.90
18041;DHT22;9145;48.588;9.250;2022-10-31T12:47:40;18.30;99.90
18041;DHT22;9145;48.588;9.250;2022-10-31T12:50:22;18.20;99.90
18041;DHT22;9145;48.588;9.250;2022-10-31T12:53:00;18.20;99.90
18041;DHT22;9145;48.588;9.250;2022-10-31T12:55:38;18.20;99.90
18041;DHT22;9145;48.588;9.250;2022-10-31T12:58:10;18.20;99.90
18041;DHT22;9145;48.588;9.250;2022-10-31T13:00:44;18.10;99.90
18041;DHT22;9145;48.588;9.250;2022-10-31T13:03:22;18.10;99.90
18041;DHT22;9145;48.588;9.250;2022-10-31T13:05:56;18.10;99.90
18041;DHT22;9145;48.588;9.250;2022-10-31T13:08:28;18.10;99.90
18041;DHT22;9145;48.588;9.250;2022-10-31T13:11:03;18.10;99.90
18041;DHT22;9145;48.588;9.250;2022-10-31T13:13:37;18.10;99.90
18041;DHT22;9145;48.588;9.250;2022-10-31T13:16:11;18.10;99.90
18041;DHT22;9145;48.588;9.250;2022-10-31T13:18:42;18.10;99.90
18041;DHT22;9145;48.588;9.250;2022-10-31T13:21:15;18.10;99.90
18041;DHT22;9145;48.588;9.250;2022-10-31T13:23:44;18.20;99.90
18041;DHT22;9145;48.588;9.250;2022-10-31T13:26:15;18.20;99.90
18041;DHT22;9145;48.588;9.250;2022-10-31T13:28:46;18.20;99.90
18041;DHT22;9145;48.588;9.250;2022-10-31T13:31:13;18.20;99.90
18041;DHT22;9145;48.588;9.250;2022-10-31T13:33:43;18.30;99.90
18041;DHT22;9145;48.588;9.250;2022-10-31T13:36:22;18.30;99.90
18041;DHT22;9145;48.588;9.250;2022-10-31T13:38:53;18.30;99.90
18041;DHT22;9145;48.588;9.250;2022-10-31T13:41:34;18.30;99.90
18041;DHT22;9145;48.588;9.250;2022-10-31T13:44:10;18.50;99.90
18041;DHT22;9145;48.588;9.250;2022-10-31T13:46:39;18.60;99.90
18041;DHT22;9145;48.588;9.250;2022-10-31T13:49:24;18.70;99.90
18041;DHT22;9145;48.588;9.250;2022-10-31T13:51:53;18.70;99.90
18041;DHT22;9145;48.588;9.250;2022-10-31T13:54:33;18.80;99.90
18041;DHT22;9145;48.588;9.250;2022-10-31T13:57:00;18.90;99.90
18041;DHT22;9145;48.588;9.250;2022-10-31T13:59:28;19.00;99.90
18041;DHT22;9145;48.588;9.250;2022-10-31T14:01:58;19.00;99.90
18041;DHT22;9145;48.588;9.250;2022-10-31T14:04:29;19.10;99.90
18041;DHT22;9145;48.588;9.250;2022-10-31T14:07:05;19.00;99.90
18041;DHT22;9145;48.588;9.250;2022-10-31T14:09:35;19.10;99.90
18041;DHT22;9145;48.588;9.250;2022-10-31T14:12:05;19.20;99.90
18041;DHT22;9145;48.588;9.250;2022-10-31T14:14:40;19.60;99.90
18041;DHT22;9145;48.588;9.250;2022-10-31T14:17:17;19.90;99.90
18041;DHT22;9145;48.588;9.250;2022-10-31T14:22:42;20.60;99.90
18041;DHT22;9145;48.588;9.250;2022-10-31T14:25:26;21.00;99.90
18041;DHT22;9145;48.588;9.250;2022-10-31T14:27:54;21.40;99.90
18041;DHT22;9145;48.588;9.250;2022-10-31T14:30:23;21.60;99.90
18041;DHT22;9145;48.588;9.250;2022-10-31T14:32:52;21.70;99.90
18041;DHT22;9145;48.588;9.250;2022-10-31T14:35:21;21.70;99.90
18041;DHT22;9145;48.588;9.250;2022-10-31T14:40:57;22.00;99.90
18041;DHT22;9145;48.588;9.250;2022-10-31T14:43:45;21.70;99.90
18041;DHT22;9145;48.588;9.250;2022-10-31T14:46:21;21.50;99.90
18041;DHT22;9145;48.588;9.250;2022-10-31T14:49:06;21.30;99.90
18041;DHT22;9145;48.588;9.250;2022-10-31T14:51:41;21.30;99.90
18041;DHT22;9145;48.588;9.250;2022-10-31T14:54:14;21.50;99.90
18041;DHT22;9145;48.588;9.250;2022-10-31T14:56:47;21.80;99.90
18041;DHT22;9145;48.588;9.250;2022-10-31T14:59:18;21.90;99.90
18041;DHT22;9145;48.588;9.250;2022-10-31T15:01:54;22.20;99.90
18041;DHT22;9145;48.588;9.250;2022-10-31T15:04:25;22.50;99.90
18041;DHT22;9145;48.588;9.250;2022-10-31T15:06:57;22.60;99.90
18041;DHT22;9145;48.588;9.250;2022-10-31T15:09:28;22.60;99.90
18041;DHT22;9145;48.588;9.250;2022-10-31T15:11:55;22.40;99.90
18041;DHT22;9145;48.588;9.250;2022-10-31T15:14:25;21.80;99.90
18041;DHT22;9145;48.588;9.250;2022-10-31T15:16:53;21.50;99.90
18041;DHT22;9145;48.588;9.250;2022-10-31T15:19:22;21.10;99.90
18041;DHT22;9145;48.588;9.250;2022-10-31T15:21:51;20.80;99.90
18041;DHT22;9145;48.588;9.250;2022-10-31T15:24:19;20.60;99.90
18041;DHT22;9145;48.588;9.250;2022-10-31T15:26:49;20.40;99.90
18041;DHT22;9145;48.588;9.250;2022-10-31T15:29:18;20.20;99.90
18041;DHT22;9145;48.588;9.250;2022-10-31T15:31:51;20.20;99.90
18041;DHT22;9145;48.588;9.250;2022-10-31T15:34:21;20.00;99.90
18041;DHT22;9145;48.588;9.250;2022-10-31T15:36:49;19.90;99.90
18041;DHT22;9145;48.588;9.250;2022-10-31T15:39:16;19.70;99.90
18041;DHT22;9145;48.588;9.250;2022-10-31T15:41:50;19.50;99.90
18041;DHT22;9145;48.588;9.250;2022-10-31T15:44:22;19.30;99.90
18041;DHT22;9145;48.588;9.250;2022-10-31T15:46:57;19.30;99.90
18041;DHT22;9145;48.588;9.250;2022-10-31T15:49:32;19.20;99.90
18041;DHT22;9145;48.588;9.250;2022-10-31T15:52:09;19.10;99.90
18041;DHT22;9145;48.588;9.250;2022-10-31T15:54:45;18.90;99.90
18041;DHT22;9145;48.588;9.250;2022-10-31T15:57:13;18.80;99.90
18041;DHT22;9145;48.588;9.250;2022-10-31T15:59:44;18.70;99.90
18041;DHT22;9145;48.588;9.250;2022-10-31T16:02:14;18.60;99.90
18041;DHT22;9145;48.588;9.250;2022-10-31T16:04:49;18.50;99.90
18041;DHT22;9145;48.588;9.250;2022-10-31T16:07:18;18.30;99.90
18041;DHT22;9145;48.588;9.250;2022-10-31T16:09:50;18.20;99.90
18041;DHT22;9145;48.588;9.250;2022-10-31T16:12:19;18.10;99.90
18041;DHT22;9145;48.588;9.250;2022-10-31T16:14:46;18.10;99.90
18041;DHT22;9145;48.588;9.250;2022-10-31T16:17:15;18.00;99.90
18041;DHT22;9145;48.588;9.250;2022-10-31T16:19:50;17.90;99.90